sensor_id;sensor_type;location;lat;lon;timestamp;P1;durP1;ratioP1;P2;durP2;ratioP2
438;SDS011;206;48.782;9.252;2023-02-03T00:01:01;1.90;;;1.30;;
438;SDS011;206;48.782;9.252;2023-02-03T00:03:26;2.73;;;1.40;;
438;SDS011;206;48.782;9.252;2023-02-03T00:05:52;1.90;;;1.20;;
438;SDS011;206;48.782;9.252;2023-02-03T00:08:19;1.50;;;1.10;;
438;SDS011;206;48.782;9.252;2023-02-03T00:10:46;5.40;;;1.10;;
438;SDS011;206;48.782;9.252;2023-02-03T00:13:12;1.00;;;0.90;;
438;SDS011;206;48.782;9.252;2023-02-03T00:15:38;1.23;;;0.93;;
438;SDS011;206;48.782;9.252;2023-02-03T00:18:04;1.20;;;0.97;;
438;SDS011;206;48.782;9.252;2023-02-03T00:20:29;1.00;;;0.70;;
438;SDS011;206;48.782;9.252;2023-02-03T00:23:01;2.40;;;0.97;;
438;SDS011;206;48.782;9.252;2023-02-03T00:25:31;2.50;;;1.00;;
438;SDS011;206;48.782;9.252;2023-02-03T00:27:56;2.73;;;1.00;;
438;SDS011;206;48.782;9.252;2023-02-03T00:30:22;2.60;;;0.90;;
438;SDS011;206;48.782;9.252;2023-02-03T00:32:48;3.40;;;0.70;;
438;SDS011;206;48.782;9.252;2023-02-03T00:35:13;1.60;;;0.90;;
438;SDS011;206;48.782;9.252;2023-02-03T00:37:39;1.10;;;0.93;;
438;SDS011;206;48.782;9.252;2023-02-03T00:40:05;0.90;;;0.80;;
438;SDS011;206;48.782;9.252;2023-02-03T00:42:32;0.90;;;0.80;;
438;SDS011;206;48.782;9.252;2023-02-03T00:44:59;1.73;;;1.00;;
438;SDS011;206;48.782;9.252;2023-02-03T00:47:25;2.37;;;1.40;;
438;SDS011;206;48.782;9.252;2023-02-03T00:49:50;8.50;;;1.43;;
438;SDS011;206;48.782;9.252;2023-02-03T00:52:16;2.73;;;1.00;;
438;SDS011;206;48.782;9.252;2023-02-03T00:54:42;1.40;;;0.77;;
438;SDS011;206;48.782;9.252;2023-02-03T00:57:07;1.53;;;0.70;;
438;SDS011;206;48.782;9.252;2023-02-03T00:59:33;1.30;;;1.10;;
438;SDS011;206;48.782;9.252;2023-02-03T01:01:59;2.37;;;1.10;;
438;SDS011;206;48.782;9.252;2023-02-03T01:04:24;1.33;;;0.67;;
438;SDS011;206;48.782;9.252;2023-02-03T01:06:50;1.40;;;0.87;;
438;SDS011;206;48.782;9.252;2023-02-03T01:09:20;1.17;;;0.87;;
438;SDS011;206;48.782;9.252;2023-02-03T01:11:45;3.47;;;1.13;;
438;SDS011;206;48.782;9.252;2023-02-03T01:14:11;1.67;;;0.87;;
438;SDS011;206;48.782;9.252;2023-02-03T01:16:36;1.20;;;1.00;;
438;SDS011;206;48.782;9.252;2023-02-03T01:19:03;3.00;;;1.10;;
438;SDS011;206;48.782;9.252;2023-02-03T01:21:28;1.90;;;1.03;;
438;SDS011;206;48.782;9.252;2023-02-03T01:23:54;1.07;;;0.80;;
438;SDS011;206;48.782;9.252;2023-02-03T01:26:21;3.77;;;1.50;;
438;SDS011;206;48.782;9.252;2023-02-03T01:28:51;1.20;;;0.70;;
438;SDS011;206;48.782;9.252;2023-02-03T01:31:22;2.17;;;1.10;;
438;SDS011;206;48.782;9.252;2023-02-03T01:34:14;1.00;;;0.90;;
438;SDS011;206;48.782;9.252;2023-02-03T01:36:43;1.87;;;1.20;;
438;SDS011;206;48.782;9.252;2023-02-03T01:39:10;1.00;;;0.80;;
438;SDS011;206;48.782;9.252;2023-02-03T01:41:37;3.13;;;1.40;;
438;SDS011;206;48.782;9.252;2023-02-03T01:47:00;0.70;;;0.70;;
438;SDS011;206;48.782;9.252;2023-02-03T01:49:28;2.43;;;1.40;;
438;SDS011;206;48.782;9.252;2023-02-03T01:51:59;1.73;;;0.73;;
438;SDS011;206;48.782;9.252;2023-02-03T01:54:25;0.90;;;0.80;;
438;SDS011;206;48.782;9.252;2023-02-03T01:57:03;0.80;;;0.70;;
438;SDS011;206;48.782;9.252;2023-02-03T01:59:35;1.17;;;1.00;;
438;SDS011;206;48.782;9.252;2023-02-03T02:02:01;1.50;;;1.13;;
438;SDS011;206;48.782;9.252;2023-02-03T02:04:38;4.20;;;1.40;;
438;SDS011;206;48.782;9.252;2023-02-03T02:07:14;1.73;;;1.17;;
438;SDS011;206;48.782;9.252;2023-02-03T02:09:40;4.27;;;1.67;;
438;SDS011;206;48.782;9.252;2023-02-03T02:12:08;1.40;;;1.13;;
438;SDS011;206;48.782;9.252;2023-02-03T02:14:37;1.77;;;1.27;;
438;SDS011;206;48.782;9.252;2023-02-03T02:17:05;1.37;;;1.30;;
438;SDS011;206;48.782;9.252;2023-02-03T02:25:09;1.40;;;1.10;;
438;SDS011;206;48.782;9.252;2023-02-03T02:33:12;2.67;;;1.00;;
438;SDS011;206;48.782;9.252;2023-02-03T02:38:37;2.97;;;1.40;;
438;SDS011;206;48.782;9.252;2023-02-03T02:41:07;1.97;;;1.90;;
438;SDS011;206;48.782;9.252;2023-02-03T02:43:45;1.60;;;1.30;;
438;SDS011;206;48.782;9.252;2023-02-03T02:46:21;2.40;;;1.43;;
438;SDS011;206;48.782;9.252;2023-02-03T02:51:55;2.00;;;1.23;;
438;SDS011;206;48.782;9.252;2023-02-03T02:54:24;1.77;;;1.47;;
438;SDS011;206;48.782;9.252;2023-02-03T02:56:52;1.97;;;1.60;;
438;SDS011;206;48.782;9.252;2023-02-03T02:59:21;3.50;;;1.87;;
438;SDS011;206;48.782;9.252;2023-02-03T03:01:47;2.60;;;1.50;;
438;SDS011;206;48.782;9.252;2023-02-03T03:04:13;4.90;;;1.40;;
438;SDS011;206;48.782;9.252;2023-02-03T03:06:43;5.37;;;1.90;;
438;SDS011;206;48.782;9.252;2023-02-03T03:09:23;2.20;;;1.00;;
438;SDS011;206;48.782;9.252;2023-02-03T03:11:57;0.93;;;0.87;;
438;SDS011;206;48.782;9.252;2023-02-03T03:14:38;2.33;;;1.37;;
438;SDS011;206;48.782;9.252;2023-02-03T03:17:06;3.83;;;1.13;;
438;SDS011;206;48.782;9.252;2023-02-03T03:19:41;0.87;;;0.77;;
438;SDS011;206;48.782;9.252;2023-02-03T03:22:12;1.10;;;0.80;;
438;SDS011;206;48.782;9.252;2023-02-03T03:24:47;4.10;;;0.80;;
438;SDS011;206;48.782;9.252;2023-02-03T03:27:23;3.17;;;0.93;;
438;SDS011;206;48.782;9.252;2023-02-03T03:29:55;2.30;;;0.90;;
438;SDS011;206;48.782;9.252;2023-02-03T03:32:25;1.33;;;0.80;;
438;SDS011;206;48.782;9.252;2023-02-03T03:34:52;1.37;;;0.97;;
438;SDS011;206;48.782;9.252;2023-02-03T03:40:02;1.20;;;1.10;;
438;SDS011;206;48.782;9.252;2023-02-03T03:42:37;1.40;;;1.30;;
438;SDS011;206;48.782;9.252;2023-02-03T03:48:02;1.03;;;0.93;;
438;SDS011;206;48.782;9.252;2023-02-03T03:50:37;2.10;;;1.13;;
438;SDS011;206;48.782;9.252;2023-02-03T03:53:07;1.53;;;0.90;;
438;SDS011;206;48.782;9.252;2023-02-03T03:55:34;3.27;;;0.73;;
438;SDS011;206;48.782;9.252;2023-02-03T03:58:06;1.00;;;0.60;;
438;SDS011;206;48.782;9.252;2023-02-03T04:00:35;1.93;;;0.80;;
438;SDS011;206;48.782;9.252;2023-02-03T04:06:03;1.17;;;0.70;;
438;SDS011;206;48.782;9.252;2023-02-03T04:08:29;1.90;;;0.70;;
438;SDS011;206;48.782;9.252;2023-02-03T04:10:54;1.57;;;0.60;;
438;SDS011;206;48.782;9.252;2023-02-03T04:13:20;1.27;;;0.83;;
438;SDS011;206;48.782;9.252;2023-02-03T04:15:45;1.13;;;0.67;;
438;SDS011;206;48.782;9.252;2023-02-03T04:18:12;1.33;;;1.00;;
438;SDS011;206;48.782;9.252;2023-02-03T04:20:39;3.00;;;1.47;;
438;SDS011;206;48.782;9.252;2023-02-03T04:23:05;1.03;;;0.60;;
438;SDS011;206;48.782;9.252;2023-02-03T04:25:31;5.60;;;0.90;;
438;SDS011;206;48.782;9.252;2023-02-03T04:27:56;1.30;;;0.90;;
438;SDS011;206;48.782;9.252;2023-02-03T04:30:22;0.60;;;0.57;;
438;SDS011;206;48.782;9.252;2023-02-03T04:32:47;1.33;;;0.80;;
438;SDS011;206;48.782;9.252;2023-02-03T04:35:14;0.77;;;0.60;;
438;SDS011;206;48.782;9.252;2023-02-03T04:37:39;0.93;;;0.90;;
438;SDS011;206;48.782;9.252;2023-02-03T04:40:05;2.80;;;1.00;;
438;SDS011;206;48.782;9.252;2023-02-03T04:42:32;0.90;;;0.60;;
438;SDS011;206;48.782;9.252;2023-02-03T04:44:57;1.33;;;0.60;;
438;SDS011;206;48.782;9.252;2023-02-03T04:47:23;1.30;;;0.70;;
438;SDS011;206;48.782;9.252;2023-02-03T04:49:49;2.07;;;0.90;;
438;SDS011;206;48.782;9.252;2023-02-03T04:52:15;2.40;;;0.80;;
438;SDS011;206;48.782;9.252;2023-02-03T04:54:40;0.80;;;0.57;;
438;SDS011;206;48.782;9.252;2023-02-03T04:57:06;2.20;;;0.77;;
438;SDS011;206;48.782;9.252;2023-02-03T04:59:32;0.70;;;0.60;;
438;SDS011;206;48.782;9.252;2023-02-03T05:01:57;1.13;;;0.87;;
438;SDS011;206;48.782;9.252;2023-02-03T05:04:25;0.90;;;0.60;;
438;SDS011;206;48.782;9.252;2023-02-03T05:06:51;1.13;;;0.93;;
438;SDS011;206;48.782;9.252;2023-02-03T05:09:16;2.37;;;1.10;;
438;SDS011;206;48.782;9.252;2023-02-03T05:11:42;1.90;;;0.80;;
438;SDS011;206;48.782;9.252;2023-02-03T05:14:07;1.63;;;1.00;;
438;SDS011;206;48.782;9.252;2023-02-03T05:16:33;0.90;;;0.90;;
438;SDS011;206;48.782;9.252;2023-02-03T05:18:59;2.17;;;0.90;;
438;SDS011;206;48.782;9.252;2023-02-03T05:21:26;1.43;;;0.90;;
438;SDS011;206;48.782;9.252;2023-02-03T05:23:52;1.83;;;0.80;;
438;SDS011;206;48.782;9.252;2023-02-03T05:26:30;3.30;;;1.07;;
438;SDS011;206;48.782;9.252;2023-02-03T05:28:56;2.00;;;1.00;;
438;SDS011;206;48.782;9.252;2023-02-03T05:31:22;1.40;;;1.00;;
438;SDS011;206;48.782;9.252;2023-02-03T05:33:47;2.37;;;1.17;;
438;SDS011;206;48.782;9.252;2023-02-03T05:36:13;1.43;;;1.27;;
438;SDS011;206;48.782;9.252;2023-02-03T05:38:39;1.43;;;0.80;;
438;SDS011;206;48.782;9.252;2023-02-03T05:41:06;1.50;;;0.87;;
438;SDS011;206;48.782;9.252;2023-02-03T05:43:52;0.80;;;0.57;;
438;SDS011;206;48.782;9.252;2023-02-03T05:46:17;7.83;;;1.40;;
438;SDS011;206;48.782;9.252;2023-02-03T05:48:43;2.83;;;2.13;;
438;SDS011;206;48.782;9.252;2023-02-03T05:51:10;1.63;;;0.70;;
438;SDS011;206;48.782;9.252;2023-02-03T05:53:35;1.20;;;0.90;;
438;SDS011;206;48.782;9.252;2023-02-03T05:56:01;1.40;;;1.03;;
438;SDS011;206;48.782;9.252;2023-02-03T05:58:27;1.40;;;1.20;;
438;SDS011;206;48.782;9.252;2023-02-03T06:00:52;1.20;;;0.80;;
438;SDS011;206;48.782;9.252;2023-02-03T06:03:18;0.80;;;0.77;;
438;SDS011;206;48.782;9.252;2023-02-03T06:05:43;1.30;;;0.70;;
438;SDS011;206;48.782;9.252;2023-02-03T06:08:09;1.60;;;1.37;;
438;SDS011;206;48.782;9.252;2023-02-03T06:10:35;1.20;;;1.10;;
438;SDS011;206;48.782;9.252;2023-02-03T06:13:14;4.03;;;0.90;;
438;SDS011;206;48.782;9.252;2023-02-03T06:15:40;1.23;;;1.13;;
438;SDS011;206;48.782;9.252;2023-02-03T06:18:06;3.37;;;1.60;;
438;SDS011;206;48.782;9.252;2023-02-03T06:20:31;4.87;;;1.40;;
438;SDS011;206;48.782;9.252;2023-02-03T06:22:57;1.30;;;0.90;;
438;SDS011;206;48.782;9.252;2023-02-03T06:25:23;1.20;;;0.80;;
438;SDS011;206;48.782;9.252;2023-02-03T06:27:49;1.53;;;1.03;;
438;SDS011;206;48.782;9.252;2023-02-03T06:30:15;1.07;;;0.93;;
438;SDS011;206;48.782;9.252;2023-02-03T06:32:41;1.00;;;0.80;;
438;SDS011;206;48.782;9.252;2023-02-03T06:35:07;2.60;;;1.30;;
438;SDS011;206;48.782;9.252;2023-02-03T06:37:33;2.40;;;1.33;;
438;SDS011;206;48.782;9.252;2023-02-03T06:39:59;6.20;;;1.40;;
438;SDS011;206;48.782;9.252;2023-02-03T06:42:26;2.53;;;1.17;;
438;SDS011;206;48.782;9.252;2023-02-03T06:44:51;0.90;;;0.70;;
438;SDS011;206;48.782;9.252;2023-02-03T06:47:17;1.20;;;0.80;;
438;SDS011;206;48.782;9.252;2023-02-03T06:49:43;1.07;;;0.80;;
438;SDS011;206;48.782;9.252;2023-02-03T06:52:08;1.57;;;0.83;;
438;SDS011;206;48.782;9.252;2023-02-03T06:54:34;2.30;;;1.23;;
438;SDS011;206;48.782;9.252;2023-02-03T06:56:59;0.70;;;0.63;;
438;SDS011;206;48.782;9.252;2023-02-03T06:59:25;1.20;;;1.00;;
438;SDS011;206;48.782;9.252;2023-02-03T07:01:50;3.40;;;1.13;;
438;SDS011;206;48.782;9.252;2023-02-03T07:04:17;1.30;;;0.80;;
438;SDS011;206;48.782;9.252;2023-02-03T07:06:42;1.73;;;1.13;;
438;SDS011;206;48.782;9.252;2023-02-03T07:09:08;1.80;;;0.80;;
438;SDS011;206;48.782;9.252;2023-02-03T07:11:33;3.50;;;1.30;;
438;SDS011;206;48.782;9.252;2023-02-03T07:13:59;1.83;;;1.17;;
438;SDS011;206;48.782;9.252;2023-02-03T07:16:25;6.43;;;1.83;;
438;SDS011;206;48.782;9.252;2023-02-03T07:18:51;1.63;;;0.93;;
438;SDS011;206;48.782;9.252;2023-02-03T07:21:17;1.70;;;1.13;;
438;SDS011;206;48.782;9.252;2023-02-03T07:23:45;2.00;;;1.17;;
438;SDS011;206;48.782;9.252;2023-02-03T07:26:12;1.77;;;1.70;;
438;SDS011;206;48.782;9.252;2023-02-03T07:28:37;2.30;;;2.10;;
438;SDS011;206;48.782;9.252;2023-02-03T07:31:03;2.20;;;2.03;;
438;SDS011;206;48.782;9.252;2023-02-03T07:33:29;1.53;;;1.17;;
438;SDS011;206;48.782;9.252;2023-02-03T07:35:56;1.00;;;0.90;;
438;SDS011;206;48.782;9.252;2023-02-03T07:38:24;1.30;;;1.13;;
438;SDS011;206;48.782;9.252;2023-02-03T07:40:51;1.00;;;0.90;;
438;SDS011;206;48.782;9.252;2023-02-03T07:43:17;4.40;;;2.20;;
438;SDS011;206;48.782;9.252;2023-02-03T07:45:43;3.40;;;1.60;;
438;SDS011;206;48.782;9.252;2023-02-03T07:48:10;3.77;;;1.40;;
438;SDS011;206;48.782;9.252;2023-02-03T07:50:36;4.30;;;1.47;;
438;SDS011;206;48.782;9.252;2023-02-03T07:53:02;1.63;;;1.47;;
438;SDS011;206;48.782;9.252;2023-02-03T07:55:28;1.57;;;1.40;;
438;SDS011;206;48.782;9.252;2023-02-03T07:57:56;4.10;;;3.30;;
438;SDS011;206;48.782;9.252;2023-02-03T08:00:23;3.90;;;2.40;;
438;SDS011;206;48.782;9.252;2023-02-03T08:02:49;1.43;;;1.40;;
438;SDS011;206;48.782;9.252;2023-02-03T08:05:15;1.43;;;1.40;;
438;SDS011;206;48.782;9.252;2023-02-03T08:07:42;1.77;;;1.53;;
438;SDS011;206;48.782;9.252;2023-02-03T08:10:08;4.00;;;3.80;;
438;SDS011;206;48.782;9.252;2023-02-03T08:12:35;3.33;;;3.13;;
438;SDS011;206;48.782;9.252;2023-02-03T08:15:00;5.23;;;3.83;;
438;SDS011;206;48.782;9.252;2023-02-03T08:17:26;5.40;;;2.03;;
438;SDS011;206;48.782;9.252;2023-02-03T08:19:52;2.93;;;1.33;;
438;SDS011;206;48.782;9.252;2023-02-03T08:22:17;6.30;;;1.90;;
438;SDS011;206;48.782;9.252;2023-02-03T08:24:46;5.97;;;2.60;;
438;SDS011;206;48.782;9.252;2023-02-03T08:27:13;2.27;;;1.50;;
438;SDS011;206;48.782;9.252;2023-02-03T08:29:39;3.00;;;1.63;;
438;SDS011;206;48.782;9.252;2023-02-03T08:32:07;6.20;;;2.30;;
438;SDS011;206;48.782;9.252;2023-02-03T08:34:37;5.60;;;1.80;;
438;SDS011;206;48.782;9.252;2023-02-03T08:37:03;2.43;;;1.73;;
438;SDS011;206;48.782;9.252;2023-02-03T08:39:29;2.27;;;1.67;;
438;SDS011;206;48.782;9.252;2023-02-03T08:41:54;3.47;;;2.80;;
438;SDS011;206;48.782;9.252;2023-02-03T08:44:20;2.67;;;1.77;;
438;SDS011;206;48.782;9.252;2023-02-03T08:46:50;2.53;;;1.87;;
438;SDS011;206;48.782;9.252;2023-02-03T08:49:17;3.23;;;1.83;;
438;SDS011;206;48.782;9.252;2023-02-03T08:51:44;3.23;;;1.90;;
438;SDS011;206;48.782;9.252;2023-02-03T08:54:11;2.50;;;1.40;;
438;SDS011;206;48.782;9.252;2023-02-03T08:56:37;1.50;;;1.40;;
438;SDS011;206;48.782;9.252;2023-02-03T08:59:02;3.57;;;2.70;;
438;SDS011;206;48.782;9.252;2023-02-03T09:01:28;4.07;;;2.03;;
438;SDS011;206;48.782;9.252;2023-02-03T09:03:54;6.60;;;2.17;;
438;SDS011;206;48.782;9.252;2023-02-03T09:06:20;8.13;;;1.80;;
438;SDS011;206;48.782;9.252;2023-02-03T09:08:46;3.23;;;2.00;;
438;SDS011;206;48.782;9.252;2023-02-03T09:11:13;3.97;;;2.90;;
438;SDS011;206;48.782;9.252;2023-02-03T09:13:40;1.73;;;1.57;;
438;SDS011;206;48.782;9.252;2023-02-03T09:16:10;2.27;;;1.87;;
438;SDS011;206;48.782;9.252;2023-02-03T09:18:37;1.80;;;1.70;;
438;SDS011;206;48.782;9.252;2023-02-03T09:21:07;4.23;;;1.40;;
438;SDS011;206;48.782;9.252;2023-02-03T09:23:35;2.70;;;1.50;;
438;SDS011;206;48.782;9.252;2023-02-03T09:26:02;7.30;;;1.97;;
438;SDS011;206;48.782;9.252;2023-02-03T09:28:31;2.13;;;1.10;;
438;SDS011;206;48.782;9.252;2023-02-03T09:31:00;4.73;;;1.60;;
438;SDS011;206;48.782;9.252;2023-02-03T09:33:33;1.80;;;1.70;;
438;SDS011;206;48.782;9.252;2023-02-03T09:36:00;1.90;;;1.40;;
438;SDS011;206;48.782;9.252;2023-02-03T09:38:26;3.33;;;2.67;;
438;SDS011;206;48.782;9.252;2023-02-03T09:40:53;10.10;;;2.60;;
438;SDS011;206;48.782;9.252;2023-02-03T09:43:28;3.53;;;1.40;;
438;SDS011;206;48.782;9.252;2023-02-03T09:46:23;3.37;;;1.40;;
438;SDS011;206;48.782;9.252;2023-02-03T09:51:28;1.53;;;1.50;;
438;SDS011;206;48.782;9.252;2023-02-03T09:54:03;2.67;;;2.03;;
438;SDS011;206;48.782;9.252;2023-02-03T09:56:37;1.63;;;1.20;;
438;SDS011;206;48.782;9.252;2023-02-03T09:59:04;2.33;;;1.57;;
438;SDS011;206;48.782;9.252;2023-02-03T10:01:39;2.17;;;1.40;;
438;SDS011;206;48.782;9.252;2023-02-03T10:07:39;2.70;;;1.90;;
438;SDS011;206;48.782;9.252;2023-02-03T10:19:08;2.00;;;1.30;;
438;SDS011;206;48.782;9.252;2023-02-03T10:21:40;2.13;;;1.77;;
438;SDS011;206;48.782;9.252;2023-02-03T10:24:57;6.80;;;6.10;;
438;SDS011;206;48.782;9.252;2023-02-03T10:27:26;5.60;;;3.07;;
438;SDS011;206;48.782;9.252;2023-02-03T10:29:55;3.67;;;2.20;;
438;SDS011;206;48.782;9.252;2023-02-03T10:32:25;15.83;;;2.73;;
438;SDS011;206;48.782;9.252;2023-02-03T10:34:51;1.80;;;1.47;;
438;SDS011;206;48.782;9.252;2023-02-03T10:37:33;5.73;;;3.73;;
438;SDS011;206;48.782;9.252;2023-02-03T10:40:05;1.53;;;1.10;;
438;SDS011;206;48.782;9.252;2023-02-03T10:42:35;3.40;;;1.47;;
438;SDS011;206;48.782;9.252;2023-02-03T10:45:20;6.03;;;3.10;;
438;SDS011;206;48.782;9.252;2023-02-03T10:47:55;5.50;;;2.57;;
438;SDS011;206;48.782;9.252;2023-02-03T10:50:23;1.83;;;1.37;;
438;SDS011;206;48.782;9.252;2023-02-03T10:55:44;2.17;;;1.30;;
438;SDS011;206;48.782;9.252;2023-02-03T10:58:14;3.13;;;1.47;;
438;SDS011;206;48.782;9.252;2023-02-03T11:00:49;2.10;;;1.07;;
438;SDS011;206;48.782;9.252;2023-02-03T11:06:25;1.97;;;0.83;;
438;SDS011;206;48.782;9.252;2023-02-03T11:08:44;1.33;;;0.70;;
438;SDS011;206;48.782;9.252;2023-02-03T11:11:12;3.17;;;1.30;;
438;SDS011;206;48.782;9.252;2023-02-03T11:13:48;0.90;;;0.60;;
438;SDS011;206;48.782;9.252;2023-02-03T11:16:24;7.47;;;1.20;;
438;SDS011;206;48.782;9.252;2023-02-03T11:29:29;3.40;;;2.50;;
438;SDS011;206;48.782;9.252;2023-02-03T11:31:59;7.47;;;6.43;;
438;SDS011;206;48.782;9.252;2023-02-03T11:34:34;17.50;;;11.53;;
438;SDS011;206;48.782;9.252;2023-02-03T11:40:34;27.17;;;11.00;;
438;SDS011;206;48.782;9.252;2023-02-03T11:47:45;4.87;;;3.00;;
438;SDS011;206;48.782;9.252;2023-02-03T11:53:04;7.23;;;4.30;;
438;SDS011;206;48.782;9.252;2023-02-03T12:09:50;1.33;;;0.80;;
438;SDS011;206;48.782;9.252;2023-02-03T12:29:08;1.20;;;0.93;;
438;SDS011;206;48.782;9.252;2023-02-03T12:36:49;1.60;;;1.03;;
438;SDS011;206;48.782;9.252;2023-02-03T12:42:17;6.00;;;1.90;;
438;SDS011;206;48.782;9.252;2023-02-03T12:44:56;4.13;;;2.90;;
438;SDS011;206;48.782;9.252;2023-02-03T12:50:18;5.40;;;2.63;;
438;SDS011;206;48.782;9.252;2023-02-03T12:52:46;5.27;;;2.80;;
438;SDS011;206;48.782;9.252;2023-02-03T13:06:23;3.10;;;2.40;;
438;SDS011;206;48.782;9.252;2023-02-03T13:12:06;2.80;;;2.47;;
438;SDS011;206;48.782;9.252;2023-02-03T13:14:35;5.03;;;2.63;;
438;SDS011;206;48.782;9.252;2023-02-03T13:17:25;1.63;;;1.10;;
438;SDS011;206;48.782;9.252;2023-02-03T13:19:57;2.90;;;1.20;;
438;SDS011;206;48.782;9.252;2023-02-03T13:22:28;1.70;;;1.00;;
438;SDS011;206;48.782;9.252;2023-02-03T13:25:31;2.13;;;1.33;;
438;SDS011;206;48.782;9.252;2023-02-03T13:35:54;3.17;;;2.07;;
438;SDS011;206;48.782;9.252;2023-02-03T13:38:46;16.90;;;3.73;;
438;SDS011;206;48.782;9.252;2023-02-03T13:41:35;18.17;;;12.23;;
438;SDS011;206;48.782;9.252;2023-02-03T13:44:13;10.07;;;6.47;;
438;SDS011;206;48.782;9.252;2023-02-03T13:46:44;3.60;;;2.40;;
438;SDS011;206;48.782;9.252;2023-02-03T13:49:17;3.23;;;2.60;;
438;SDS011;206;48.782;9.252;2023-02-03T13:51:54;1.30;;;0.90;;
438;SDS011;206;48.782;9.252;2023-02-03T13:56:55;6.83;;;1.43;;
438;SDS011;206;48.782;9.252;2023-02-03T13:59:37;4.77;;;2.90;;
438;SDS011;206;48.782;9.252;2023-02-03T14:12:37;3.67;;;1.30;;
438;SDS011;206;48.782;9.252;2023-02-03T14:15:20;1.60;;;1.60;;
438;SDS011;206;48.782;9.252;2023-02-03T14:22:52;6.30;;;4.03;;
438;SDS011;206;48.782;9.252;2023-02-03T14:25:44;1.80;;;1.70;;
438;SDS011;206;48.782;9.252;2023-02-03T14:28:15;25.33;;;1.97;;
438;SDS011;206;48.782;9.252;2023-02-03T14:31:00;1.30;;;1.07;;
438;SDS011;206;48.782;9.252;2023-02-03T14:41:45;6.13;;;0.80;;
438;SDS011;206;48.782;9.252;2023-02-03T14:44:35;4.10;;;1.80;;
438;SDS011;206;48.782;9.252;2023-02-03T14:47:07;1.50;;;1.00;;
438;SDS011;206;48.782;9.252;2023-02-03T14:56:06;6.70;;;1.17;;
438;SDS011;206;48.782;9.252;2023-02-03T14:58:36;1.53;;;0.90;;
438;SDS011;206;48.782;9.252;2023-02-03T15:01:21;1.50;;;0.70;;
438;SDS011;206;48.782;9.252;2023-02-03T15:06:38;2.87;;;1.00;;
438;SDS011;206;48.782;9.252;2023-02-03T15:12:00;1.07;;;0.93;;
438;SDS011;206;48.782;9.252;2023-02-03T15:14:28;2.13;;;1.30;;
438;SDS011;206;48.782;9.252;2023-02-03T15:16:58;3.70;;;1.00;;
438;SDS011;206;48.782;9.252;2023-02-03T15:19:36;1.30;;;1.20;;
438;SDS011;206;48.782;9.252;2023-02-03T15:25:12;1.40;;;1.20;;
438;SDS011;206;48.782;9.252;2023-02-03T15:27:42;2.83;;;1.27;;
438;SDS011;206;48.782;9.252;2023-02-03T15:30:19;3.30;;;1.97;;
438;SDS011;206;48.782;9.252;2023-02-03T15:33:10;4.47;;;4.17;;
438;SDS011;206;48.782;9.252;2023-02-03T15:35:39;1.00;;;0.97;;
438;SDS011;206;48.782;9.252;2023-02-03T15:38:11;1.20;;;0.70;;
438;SDS011;206;48.782;9.252;2023-02-03T15:40:50;1.00;;;0.50;;
438;SDS011;206;48.782;9.252;2023-02-03T15:48:45;10.30;;;2.37;;
438;SDS011;206;48.782;9.252;2023-02-03T15:53:58;2.40;;;1.40;;
438;SDS011;206;48.782;9.252;2023-02-03T15:56:33;9.33;;;4.63;;
438;SDS011;206;48.782;9.252;2023-02-03T15:59:05;6.77;;;5.87;;
438;SDS011;206;48.782;9.252;2023-02-03T16:01:43;9.97;;;9.10;;
438;SDS011;206;48.782;9.252;2023-02-03T16:04:08;7.47;;;5.93;;
438;SDS011;206;48.782;9.252;2023-02-03T16:06:36;8.50;;;6.60;;
438;SDS011;206;48.782;9.252;2023-02-03T16:09:04;12.77;;;7.50;;
438;SDS011;206;48.782;9.252;2023-02-03T16:11:38;5.77;;;4.03;;
438;SDS011;206;48.782;9.252;2023-02-03T16:14:04;9.07;;;6.20;;
438;SDS011;206;48.782;9.252;2023-02-03T16:16:37;18.87;;;15.57;;
438;SDS011;206;48.782;9.252;2023-02-03T16:19:12;2.53;;;2.40;;
438;SDS011;206;48.782;9.252;2023-02-03T16:29:51;5.97;;;3.33;;
438;SDS011;206;48.782;9.252;2023-02-03T16:32:36;3.90;;;3.07;;
438;SDS011;206;48.782;9.252;2023-02-03T16:35:20;8.20;;;5.93;;
438;SDS011;206;48.782;9.252;2023-02-03T16:38:05;17.20;;;10.10;;
438;SDS011;206;48.782;9.252;2023-02-03T16:41:00;19.93;;;14.87;;
438;SDS011;206;48.782;9.252;2023-02-03T16:43:59;3.17;;;2.00;;
438;SDS011;206;48.782;9.252;2023-02-03T16:46:44;5.53;;;2.30;;
438;SDS011;206;48.782;9.252;2023-02-03T16:49:29;5.03;;;1.77;;
438;SDS011;206;48.782;9.252;2023-02-03T16:52:13;2.30;;;1.33;;
438;SDS011;206;48.782;9.252;2023-02-03T16:54:38;1.63;;;1.23;;
438;SDS011;206;48.782;9.252;2023-02-03T16:57:04;2.00;;;1.30;;
438;SDS011;206;48.782;9.252;2023-02-03T16:59:29;2.23;;;1.43;;
438;SDS011;206;48.782;9.252;2023-02-03T17:01:55;2.37;;;1.67;;
438;SDS011;206;48.782;9.252;2023-02-03T17:04:21;1.40;;;0.87;;
438;SDS011;206;48.782;9.252;2023-02-03T17:06:46;3.87;;;1.10;;
438;SDS011;206;48.782;9.252;2023-02-03T17:09:15;1.10;;;0.70;;
438;SDS011;206;48.782;9.252;2023-02-03T17:11:46;7.83;;;5.40;;
438;SDS011;206;48.782;9.252;2023-02-03T17:14:12;10.07;;;7.50;;
438;SDS011;206;48.782;9.252;2023-02-03T17:16:39;5.33;;;4.57;;
438;SDS011;206;48.782;9.252;2023-02-03T17:19:05;10.67;;;5.97;;
438;SDS011;206;48.782;9.252;2023-02-03T17:21:33;3.67;;;2.43;;
438;SDS011;206;48.782;9.252;2023-02-03T17:23:59;2.60;;;1.80;;
438;SDS011;206;48.782;9.252;2023-02-03T17:26:25;1.90;;;1.55;;
438;SDS011;206;48.782;9.252;2023-02-03T17:28:50;9.07;;;6.87;;
438;SDS011;206;48.782;9.252;2023-02-03T17:31:17;9.53;;;5.90;;
438;SDS011;206;48.782;9.252;2023-02-03T17:33:44;5.80;;;3.20;;
438;SDS011;206;48.782;9.252;2023-02-03T17:36:14;3.20;;;3.00;;
438;SDS011;206;48.782;9.252;2023-02-03T17:38:43;2.47;;;2.27;;
438;SDS011;206;48.782;9.252;2023-02-03T17:41:11;7.90;;;7.50;;
438;SDS011;206;48.782;9.252;2023-02-03T17:43:38;2.27;;;2.07;;
438;SDS011;206;48.782;9.252;2023-02-03T17:46:05;2.40;;;1.80;;
438;SDS011;206;48.782;9.252;2023-02-03T17:48:30;2.60;;;2.00;;
438;SDS011;206;48.782;9.252;2023-02-03T17:51:13;3.77;;;2.50;;
438;SDS011;206;48.782;9.252;2023-02-03T17:53:44;8.80;;;5.43;;
438;SDS011;206;48.782;9.252;2023-02-03T17:56:11;3.60;;;2.47;;
438;SDS011;206;48.782;9.252;2023-02-03T17:58:39;3.37;;;2.43;;
438;SDS011;206;48.782;9.252;2023-02-03T18:01:06;1.33;;;1.20;;
438;SDS011;206;48.782;9.252;2023-02-03T18:03:40;4.17;;;3.03;;
438;SDS011;206;48.782;9.252;2023-02-03T18:06:08;7.37;;;4.10;;
438;SDS011;206;48.782;9.252;2023-02-03T18:08:34;3.67;;;2.53;;
438;SDS011;206;48.782;9.252;2023-02-03T18:11:00;1.33;;;1.23;;
438;SDS011;206;48.782;9.252;2023-02-03T18:13:27;2.10;;;1.57;;
438;SDS011;206;48.782;9.252;2023-02-03T18:15:55;3.40;;;2.10;;
438;SDS011;206;48.782;9.252;2023-02-03T18:18:21;2.17;;;1.93;;
438;SDS011;206;48.782;9.252;2023-02-03T18:20:47;3.97;;;2.90;;
438;SDS011;206;48.782;9.252;2023-02-03T18:23:12;4.30;;;2.47;;
438;SDS011;206;48.782;9.252;2023-02-03T18:25:38;7.93;;;3.50;;
438;SDS011;206;48.782;9.252;2023-02-03T18:28:04;3.03;;;2.07;;
438;SDS011;206;48.782;9.252;2023-02-03T18:30:29;1.93;;;1.33;;
438;SDS011;206;48.782;9.252;2023-02-03T18:32:55;2.50;;;1.80;;
438;SDS011;206;48.782;9.252;2023-02-03T18:35:21;12.57;;;9.07;;
438;SDS011;206;48.782;9.252;2023-02-03T18:37:47;13.47;;;9.07;;
438;SDS011;206;48.782;9.252;2023-02-03T18:40:13;6.57;;;3.67;;
438;SDS011;206;48.782;9.252;2023-02-03T18:42:39;13.67;;;11.67;;
438;SDS011;206;48.782;9.252;2023-02-03T18:45:05;17.90;;;17.00;;
438;SDS011;206;48.782;9.252;2023-02-03T18:47:31;5.53;;;5.00;;
438;SDS011;206;48.782;9.252;2023-02-03T18:49:57;5.40;;;2.83;;
438;SDS011;206;48.782;9.252;2023-02-03T18:52:23;2.20;;;1.67;;
438;SDS011;206;48.782;9.252;2023-02-03T18:54:48;1.00;;;0.90;;
438;SDS011;206;48.782;9.252;2023-02-03T18:57:15;2.17;;;1.53;;
438;SDS011;206;48.782;9.252;2023-02-03T18:59:41;3.07;;;1.90;;
438;SDS011;206;48.782;9.252;2023-02-03T19:02:10;2.97;;;2.00;;
438;SDS011;206;48.782;9.252;2023-02-03T19:04:36;5.50;;;2.10;;
438;SDS011;206;48.782;9.252;2023-02-03T19:07:02;3.67;;;2.07;;
438;SDS011;206;48.782;9.252;2023-02-03T19:09:28;4.20;;;3.40;;
438;SDS011;206;48.782;9.252;2023-02-03T19:11:53;5.33;;;1.87;;